sensor_id;sensor_type;location;lat;lon;timestamp;noise_LAeq;noise_LA_min;noise_LA_max;noise_LA01;noise_LA95
66454;Laerm;56832;52.514;4.662;2022-10-30T00:00:08;37.13;35.47;39.22;;
66454;Laerm;56832;52.514;4.662;2022-10-30T00:00:18;39.01;35.24;45.20;;
66454;Laerm;56832;52.514;4.662;2022-10-30T00:00:29;38.88;36.42;43.31;;
66454;Laerm;56832;52.514;4.662;2022-10-30T00:00:39;43.63;37.16;55.34;;
66454;Laerm;56832;52.514;4.662;2022-10-30T00:00:50;37.09;35.23;39.58;;
66454;Laerm;56832;52.514;4.662;2022-10-30T00:01:00;35.84;34.33;37.74;;
66454;Laerm;56832;52.514;4.662;2022-10-30T00:01:10;35.91;33.94;42.43;;
66454;Laerm;56832;52.514;4.662;2022-10-30T00:01:20;38.05;34.94;40.21;;
66454;Laerm;56832;52.514;4.662;2022-10-30T00:01:31;36.31;34.18;38.98;;
66454;Laerm;56832;52.514;4.662;2022-10-30T00:01:41;35.95;34.24;37.45;;
66454;Laerm;56832;52.514;4.662;2022-10-30T00:01:52;36.79;33.76;42.61;;
66454;Laerm;56832;52.514;4.662;2022-10-30T00:02:02;36.01;33.73;42.89;;
66454;Laerm;56832;52.514;4.662;2022-10-30T00:02:13;37.32;35.07;39.20;;
66454;Laerm;56832;52.514;4.662;2022-10-30T00:02:23;36.41;34.53;38.76;;
66454;Laerm;56832;52.514;4.662;2022-10-30T00:02:33;38.05;36.22;39.45;;
66454;Laerm;56832;52.514;4.662;2022-10-30T00:02:45;39.09;36.20;43.40;;
66454;Laerm;56832;52.514;4.662;2022-10-30T00:02:55;36.57;34.72;39.16;;
66454;Laerm;56832;52.514;4.662;2022-10-30T00:03:08;37.08;33.85;45.55;;
66454;Laerm;56832;52.514;4.662;2022-10-30T00:03:19;38.97;36.80;44.61;;
66454;Laerm;56832;52.514;4.662;2022-10-30T00:03:29;37.58;35.84;43.13;;
66454;Laerm;56832;52.514;4.662;2022-10-30T00:03:39;37.29;35.97;42.73;;
66454;Laerm;56832;52.514;4.662;2022-10-30T00:03:50;38.22;36.44;39.66;;
66454;Laerm;56832;52.514;4.662;2022-10-30T00:04:00;38.79;36.37;42.65;;
66454;Laerm;56832;52.514;4.662;2022-10-30T00:04:10;40.03;38.25;44.60;;
66454;Laerm;56832;52.514;4.662;2022-10-30T00:04:20;38.99;36.38;40.59;;
66454;Laerm;56832;52.514;4.662;2022-10-30T00:04:31;36.41;34.79;38.13;;
66454;Laerm;56832;52.514;4.662;2022-10-30T00:04:41;36.94;34.63;39.91;;
66454;Laerm;56832;52.514;4.662;2022-10-30T00:04:51;38.99;37.22;41.29;;
66454;Laerm;56832;52.514;4.662;2022-10-30T00:05:01;39.06;37.40;47.01;;
66454;Laerm;56832;52.514;4.662;2022-10-30T00:05:12;40.34;36.82;46.44;;
66454;Laerm;56832;52.514;4.662;2022-10-30T00:05:22;38.36;35.92;41.57;;
66454;Laerm;56832;52.514;4.662;2022-10-30T00:05:32;36.68;35.07;42.59;;
66454;Laerm;56832;52.514;4.662;2022-10-30T00:05:43;38.99;37.17;44.37;;
66454;Laerm;56832;52.514;4.662;2022-10-30T00:05:54;39.68;36.70;41.68;;
66454;Laerm;56832;52.514;4.662;2022-10-30T00:06:04;38.57;35.71;41.77;;
66454;Laerm;56832;52.514;4.662;2022-10-30T00:06:17;39.68;35.94;41.45;;
66454;Laerm;56832;52.514;4.662;2022-10-30T00:06:28;38.33;35.63;43.13;;
66454;Laerm;56832;52.514;4.662;2022-10-30T00:06:38;37.45;35.73;39.84;;
66454;Laerm;56832;52.514;4.662;2022-10-30T00:06:48;37.56;35.57;39.37;;
66454;Laerm;56832;52.514;4.662;2022-10-30T00:06:58;35.88;33.83;38.16;;
66454;Laerm;56832;52.514;4.662;2022-10-30T00:07:08;35.35;33.30;43.31;;
66454;Laerm;56832;52.514;4.662;2022-10-30T00:07:19;36.87;33.66;43.08;;
66454;Laerm;56832;52.514;4.662;2022-10-30T00:07:29;35.22;33.20;37.58;;
66454;Laerm;56832;52.514;4.662;2022-10-30T00:07:39;36.27;34.41;39.58;;
66454;Laerm;56832;52.514;4.662;2022-10-30T00:07:49;37.53;35.55;39.48;;
66454;Laerm;56832;52.514;4.662;2022-10-30T00:07:59;38.66;37.22;43.45;;
66454;Laerm;56832;52.514;4.662;2022-10-30T00:08:10;37.11;35.52;38.40;;
66454;Laerm;56832;52.514;4.662;2022-10-30T00:08:21;39.74;35.27;45.15;;
66454;Laerm;56832;52.514;4.662;2022-10-30T00:08:32;38.63;36.53;41.06;;
66454;Laerm;56832;52.514;4.662;2022-10-30T00:08:42;38.36;36.59;43.71;;
66454;Laerm;56832;52.514;4.662;2022-10-30T00:08:52;38.87;36.88;41.43;;
66454;Laerm;56832;52.514;4.662;2022-10-30T00:09:03;40.75;37.25;47.94;;
66454;Laerm;56832;52.514;4.662;2022-10-30T00:09:13;39.76;37.86;41.59;;
66454;Laerm;56832;52.514;4.662;2022-10-30T00:09:23;39.39;37.70;43.26;;
66454;Laerm;56832;52.514;4.662;2022-10-30T00:09:33;37.19;35.26;38.72;;
66454;Laerm;56832;52.514;4.662;2022-10-30T00:09:44;36.67;34.67;48.80;;
66454;Laerm;56832;52.514;4.662;2022-10-30T00:09:54;38.31;34.90;44.29;;
66454;Laerm;56832;52.514;4.662;2022-10-30T00:10:04;42.82;40.84;44.95;;
66454;Laerm;56832;52.514;4.662;2022-10-30T00:10:15;39.72;37.09;45.63;;
66454;Laerm;56832;52.514;4.662;2022-10-30T00:10:25;39.07;35.99;42.42;;
66454;Laerm;56832;52.514;4.662;2022-10-30T00:10:35;40.57;38.04;43.74;;
66454;Laerm;56832;52.514;4.662;2022-10-30T00:10:46;56.41;42.08;63.92;;
66454;Laerm;56832;52.514;4.662;2022-10-30T00:10:56;46.12;39.38;59.40;;
66454;Laerm;56832;52.514;4.662;2022-10-30T00:11:13;40.32;37.57;43.89;;
66454;Laerm;56832;52.514;4.662;2022-10-30T00:11:23;38.87;36.48;40.69;;
66454;Laerm;56832;52.514;4.662;2022-10-30T00:11:33;40.83;37.42;44.54;;
66454;Laerm;56832;52.514;4.662;2022-10-30T00:11:43;45.50;41.96;51.30;;
66454;Laerm;56832;52.514;4.662;2022-10-30T00:11:54;42.62;39.35;47.20;;
66454;Laerm;56832;52.514;4.662;2022-10-30T00:12:04;38.11;35.86;40.84;;
66454;Laerm;56832;52.514;4.662;2022-10-30T00:12:14;38.09;35.12;43.63;;
66454;Laerm;56832;52.514;4.662;2022-10-30T00:12:24;38.29;34.50;43.18;;
66454;Laerm;56832;52.514;4.662;2022-10-30T00:12:34;42.23;38.93;47.25;;
66454;Laerm;56832;52.514;4.662;2022-10-30T00:12:45;41.06;37.83;45.68;;
66454;Laerm;56832;52.514;4.662;2022-10-30T00:12:55;38.69;36.52;41.17;;
66454;Laerm;56832;52.514;4.662;2022-10-30T00:13:05;39.89;37.79;42.95;;
66454;Laerm;56832;52.514;4.662;2022-10-30T00:13:16;38.80;36.88;42.94;;
66454;Laerm;56832;52.514;4.662;2022-10-30T00:13:26;38.77;36.45;42.22;;
66454;Laerm;56832;52.514;4.662;2022-10-30T00:13:37;38.34;36.88;40.16;;
66454;Laerm;56832;52.514;4.662;2022-10-30T00:13:48;39.02;36.26;42.36;;
66454;Laerm;56832;52.514;4.662;2022-10-30T00:13:58;41.95;39.32;46.99;;
66454;Laerm;56832;52.514;4.662;2022-10-30T00:14:08;39.39;37.13;42.81;;
66454;Laerm;56832;52.514;4.662;2022-10-30T00:14:18;37.55;34.98;40.21;;
66454;Laerm;56832;52.514;4.662;2022-10-30T00:14:29;36.11;34.42;37.97;;
66454;Laerm;56832;52.514;4.662;2022-10-30T00:14:39;36.91;34.64;43.69;;
66454;Laerm;56832;52.514;4.662;2022-10-30T00:14:49;37.67;35.83;40.41;;
66454;Laerm;56832;52.514;4.662;2022-10-30T00:14:59;36.59;33.83;39.90;;
66454;Laerm;56832;52.514;4.662;2022-10-30T00:15:10;38.41;35.70;42.78;;
66454;Laerm;56832;52.514;4.662;2022-10-30T00:15:20;40.69;36.46;44.53;;
66454;Laerm;56832;52.514;4.662;2022-10-30T00:15:30;46.33;37.55;54.27;;
66454;Laerm;56832;52.514;4.662;2022-10-30T00:15:50;58.66;48.58;67.18;;
66454;Laerm;56832;52.514;4.662;2022-10-30T00:16:02;51.10;36.10;62.88;;
66454;Laerm;56832;52.514;4.662;2022-10-30T00:16:13;37.65;35.07;43.86;;
66454;Laerm;56832;52.514;4.662;2022-10-30T00:16:23;38.39;35.21;42.52;;
66454;Laerm;56832;52.514;4.662;2022-10-30T00:16:34;38.16;35.88;41.83;;
66454;Laerm;56832;52.514;4.662;2022-10-30T00:16:44;39.78;35.93;43.72;;
66454;Laerm;56832;52.514;4.662;2022-10-30T00:16:54;41.19;37.21;48.02;;
66454;Laerm;56832;52.514;4.662;2022-10-30T00:17:04;37.94;35.52;41.11;;
66454;Laerm;56832;52.514;4.662;2022-10-30T00:17:14;37.91;35.02;41.33;;
66454;Laerm;56832;52.514;4.662;2022-10-30T00:17:25;36.36;34.71;40.49;;
66454;Laerm;56832;52.514;4.662;2022-10-30T00:17:35;36.11;33.93;38.48;;
66454;Laerm;56832;52.514;4.662;2022-10-30T00:17:45;35.85;33.59;42.12;;
66454;Laerm;56832;52.514;4.662;2022-10-30T00:17:55;36.98;35.04;38.45;;
66454;Laerm;56832;52.514;4.662;2022-10-30T00:18:05;36.42;34.52;38.35;;
66454;Laerm;56832;52.514;4.662;2022-10-30T00:18:16;36.91;34.92;41.17;;
66454;Laerm;56832;52.514;4.662;2022-10-30T00:18:26;36.89;34.71;44.00;;
66454;Laerm;56832;52.514;4.662;2022-10-30T00:18:37;36.42;34.56;39.63;;
66454;Laerm;56832;52.514;4.662;2022-10-30T00:18:48;36.54;34.95;38.99;;
66454;Laerm;56832;52.514;4.662;2022-10-30T00:18:58;38.02;35.15;40.99;;
66454;Laerm;56832;52.514;4.662;2022-10-30T00:19:08;37.57;35.58;44.81;;
66454;Laerm;56832;52.514;4.662;2022-10-30T00:19:18;39.94;36.13;43.77;;
66454;Laerm;56832;52.514;4.662;2022-10-30T00:19:29;38.13;36.84;39.59;;
66454;Laerm;56832;52.514;4.662;2022-10-30T00:19:39;37.51;36.02;39.06;;
66454;Laerm;56832;52.514;4.662;2022-10-30T00:19:49;36.55;34.74;38.95;;
66454;Laerm;56832;52.514;4.662;2022-10-30T00:19:59;36.77;34.60;43.09;;
66454;Laerm;56832;52.514;4.662;2022-10-30T00:20:09;35.51;33.31;37.03;;
66454;Laerm;56832;52.514;4.662;2022-10-30T00:20:20;36.47;34.85;38.51;;
66454;Laerm;56832;52.514;4.662;2022-10-30T00:20:30;37.06;34.81;38.59;;
66454;Laerm;56832;52.514;4.662;2022-10-30T00:20:40;36.63;34.24;43.70;;
66454;Laerm;56832;52.514;4.662;2022-10-30T00:20:50;43.00;35.07;55.34;;
66454;Laerm;56832;52.514;4.662;2022-10-30T00:21:04;36.10;33.77;39.32;;
66454;Laerm;56832;52.514;4.662;2022-10-30T00:21:15;37.27;35.27;39.13;;
66454;Laerm;56832;52.514;4.662;2022-10-30T00:21:25;37.07;35.12;43.27;;
66454;Laerm;56832;52.514;4.662;2022-10-30T00:21:36;36.41;34.99;38.63;;
66454;Laerm;56832;52.514;4.662;2022-10-30T00:21:46;36.03;34.06;38.36;;
66454;Laerm;56832;52.514;4.662;2022-10-30T00:21:56;36.08;33.84;38.38;;
66454;Laerm;56832;52.514;4.662;2022-10-30T00:22:06;37.71;35.65;43.55;;
66454;Laerm;56832;52.514;4.662;2022-10-30T00:22:17;38.12;35.06;48.67;;
66454;Laerm;56832;52.514;4.662;2022-10-30T00:22:27;50.02;37.29;68.05;;
66454;Laerm;56832;52.514;4.662;2022-10-30T00:22:37;40.81;36.45;45.72;;
66454;Laerm;56832;52.514;4.662;2022-10-30T00:22:47;36.59;34.89;38.67;;
66454;Laerm;56832;52.514;4.662;2022-10-30T00:22:58;36.98;34.61;42.80;;
66454;Laerm;56832;52.514;4.662;2022-10-30T00:23:08;37.59;35.85;40.07;;
66454;Laerm;56832;52.514;4.662;2022-10-30T00:23:18;38.15;35.97;40.97;;
66454;Laerm;56832;52.514;4.662;2022-10-30T00:23:29;37.33;35.33;39.26;;
66454;Laerm;56832;52.514;4.662;2022-10-30T00:23:46;36.72;35.38;43.34;;
66454;Laerm;56832;52.514;4.662;2022-10-30T00:23:57;37.61;35.50;40.18;;
66454;Laerm;56832;52.514;4.662;2022-10-30T00:24:07;37.30;35.33;39.30;;
66454;Laerm;56832;52.514;4.662;2022-10-30T00:24:17;37.22;34.78;40.93;;
66454;Laerm;56832;52.514;4.662;2022-10-30T00:24:27;36.87;34.53;42.11;;
66454;Laerm;56832;52.514;4.662;2022-10-30T00:24:38;36.47;34.27;40.00;;
66454;Laerm;56832;52.514;4.662;2022-10-30T00:24:48;36.63;33.91;44.85;;
66454;Laerm;56832;52.514;4.662;2022-10-30T00:24:58;37.73;34.77;40.33;;
66454;Laerm;56832;52.514;4.662;2022-10-30T00:25:08;40.88;38.78;43.83;;
66454;Laerm;56832;52.514;4.662;2022-10-30T00:25:19;41.29;38.94;43.04;;
66454;Laerm;56832;52.514;4.662;2022-10-30T00:25:29;37.25;34.54;40.59;;
66454;Laerm;56832;52.514;4.662;2022-10-30T00:25:39;35.28;33.47;37.16;;
66454;Laerm;56832;52.514;4.662;2022-10-30T00:25:49;35.17;33.11;42.39;;
66454;Laerm;56832;52.514;4.662;2022-10-30T00:26:03;35.06;32.87;37.20;;
66454;Laerm;56832;52.514;4.662;2022-10-30T00:26:14;40.47;34.79;47.33;;
66454;Laerm;56832;52.514;4.662;2022-10-30T00:26:24;58.06;45.29;64.28;;
66454;Laerm;56832;52.514;4.662;2022-10-30T00:26:34;39.37;35.25;47.17;;
66454;Laerm;56832;52.514;4.662;2022-10-30T00:26:44;37.96;36.20;40.04;;
66454;Laerm;56832;52.514;4.662;2022-10-30T00:26:55;36.95;35.41;39.32;;
66454;Laerm;56832;52.514;4.662;2022-10-30T00:27:05;40.25;34.88;50.17;;
66454;Laerm;56832;52.514;4.662;2022-10-30T00:27:15;43.96;35.48;57.13;;
66454;Laerm;56832;52.514;4.662;2022-10-30T00:27:26;37.14;35.26;44.03;;
66454;Laerm;56832;52.514;4.662;2022-10-30T00:27:36;36.14;34.64;38.10;;
66454;Laerm;56832;52.514;4.662;2022-10-30T00:27:46;37.58;34.75;39.52;;
66454;Laerm;56832;52.514;4.662;2022-10-30T00:27:56;36.54;34.51;38.11;;
66454;Laerm;56832;52.514;4.662;2022-10-30T00:28:07;37.27;35.32;43.72;;
66454;Laerm;56832;52.514;4.662;2022-10-30T00:28:17;38.76;33.98;49.75;;
66454;Laerm;56832;52.514;4.662;2022-10-30T00:28:27;37.39;34.53;40.91;;
66454;Laerm;56832;52.514;4.662;2022-10-30T00:28:37;38.94;35.28;44.59;;
66454;Laerm;56832;52.514;4.662;2022-10-30T00:28:48;35.91;34.22;37.28;;
66454;Laerm;56832;52.514;4.662;2022-10-30T00:28:59;35.36;33.28;43.74;;
66454;Laerm;56832;52.514;4.662;2022-10-30T00:29:09;36.91;35.67;38.26;;
66454;Laerm;56832;52.514;4.662;2022-10-30T00:29:19;36.65;33.63;40.66;;
66454;Laerm;56832;52.514;4.662;2022-10-30T00:29:32;37.07;33.97;46.51;;
66454;Laerm;56832;52.514;4.662;2022-10-30T00:29:42;37.21;34.42;50.21;;
66454;Laerm;56832;52.514;4.662;2022-10-30T00:29:53;34.92;33.44;38.62;;
66454;Laerm;56832;52.514;4.662;2022-10-30T00:30:03;34.46;33.01;36.32;;
66454;Laerm;56832;52.514;4.662;2022-10-30T00:30:13;35.40;33.42;37.47;;
66454;Laerm;56832;52.514;4.662;2022-10-30T00:30:25;35.73;33.01;43.24;;
66454;Laerm;56832;52.514;4.662;2022-10-30T00:30:35;35.65;33.90;37.77;;
66454;Laerm;56832;52.514;4.662;2022-10-30T00:30:46;34.59;32.95;36.49;;
66454;Laerm;56832;52.514;4.662;2022-10-30T00:30:59;43.94;32.47;62.02;;
66454;Laerm;56832;52.514;4.662;2022-10-30T00:31:10;34.43;32.52;42.26;;
66454;Laerm;56832;52.514;4.662;2022-10-30T00:31:20;36.94;33.98;44.86;;
66454;Laerm;56832;52.514;4.662;2022-10-30T00:31:31;35.09;33.80;36.81;;
66454;Laerm;56832;52.514;4.662;2022-10-30T00:31:41;34.59;32.87;36.69;;
66454;Laerm;56832;52.514;4.662;2022-10-30T00:31:51;35.14;33.35;42.65;;
66454;Laerm;56832;52.514;4.662;2022-10-30T00:32:02;35.71;34.36;40.08;;
66454;Laerm;56832;52.514;4.662;2022-10-30T00:32:12;35.95;34.06;39.22;;
66454;Laerm;56832;52.514;4.662;2022-10-30T00:32:22;36.30;33.94;40.47;;
66454;Laerm;56832;52.514;4.662;2022-10-30T00:32:32;34.65;32.68;36.52;;
66454;Laerm;56832;52.514;4.662;2022-10-30T00:32:43;34.68;32.84;43.27;;
66454;Laerm;56832;52.514;4.662;2022-10-30T00:32:53;34.83;33.09;41.40;;
66454;Laerm;56832;52.514;4.662;2022-10-30T00:33:03;35.78;33.60;38.29;;
66454;Laerm;56832;52.514;4.662;2022-10-30T00:33:13;36.48;33.90;41.66;;
66454;Laerm;56832;52.514;4.662;2022-10-30T00:33:23;36.27;34.22;43.79;;
66454;Laerm;56832;52.514;4.662;2022-10-30T00:33:34;40.49;35.50;49.43;;
66454;Laerm;56832;52.514;4.662;2022-10-30T00:33:47;40.32;36.62;43.46;;
66454;Laerm;56832;52.514;4.662;2022-10-30T00:33:58;44.91;35.02;59.82;;
66454;Laerm;56832;52.514;4.662;2022-10-30T00:34:08;40.67;38.28;44.99;;
66454;Laerm;56832;52.514;4.662;2022-10-30T00:34:18;39.20;36.92;44.11;;
66454;Laerm;56832;52.514;4.662;2022-10-30T00:34:28;36.97;34.22;43.34;;
66454;Laerm;56832;52.514;4.662;2022-10-30T00:34:38;35.64;33.61;39.15;;
66454;Laerm;56832;52.514;4.662;2022-10-30T00:34:49;35.85;33.58;41.77;;
66454;Laerm;56832;52.514;4.662;2022-10-30T00:34:59;38.52;34.43;47.93;;
66454;Laerm;56832;52.514;4.662;2022-10-30T00:35:09;39.92;35.81;44.92;;
66454;Laerm;56832;52.514;4.662;2022-10-30T00:35:20;57.72;41.36;65.14;;
66454;Laerm;56832;52.514;4.662;2022-10-30T00:35:30;52.42;35.80;60.97;;
66454;Laerm;56832;52.514;4.662;2022-10-30T00:35:46;38.33;35.92;44.80;;
66454;Laerm;56832;52.514;4.662;2022-10-30T00:35:56;40.18;36.76;49.16;;
66454;Laerm;56832;52.514;4.662;2022-10-30T00:36:07;40.00;35.97;49.78;;
66454;Laerm;56832;52.514;4.662;2022-10-30T00:36:17;36.58;34.28;39.14;;
66454;Laerm;56832;52.514;4.662;2022-10-30T00:36:27;36.28;33.95;43.22;;
66454;Laerm;56832;52.514;4.662;2022-10-30T00:36:38;34.58;33.11;36.76;;
66454;Laerm;56832;52.514;4.662;2022-10-30T00:36:48;37.15;33.25;39.43;;
66454;Laerm;56832;52.514;4.662;2022-10-30T00:36:58;36.22;34.61;38.13;;
66454;Laerm;56832;52.514;4.662;2022-10-30T00:37:08;37.92;34.82;43.36;;
66454;Laerm;56832;52.514;4.662;2022-10-30T00:37:18;39.17;36.91;44.67;;
66454;Laerm;56832;52.514;4.662;2022-10-30T00:37:29;36.09;33.90;38.70;;
66454;Laerm;56832;52.514;4.662;2022-10-30T00:37:39;38.19;33.39;46.17;;
66454;Laerm;56832;52.514;4.662;2022-10-30T00:37:49;35.75;33.50;43.29;;
66454;Laerm;56832;52.514;4.662;2022-10-30T00:37:59;34.59;32.43;37.13;;
66454;Laerm;56832;52.514;4.662;2022-10-30T00:38:10;34.32;32.34;36.42;;
66454;Laerm;56832;52.514;4.662;2022-10-30T00:38:20;34.53;32.75;36.03;;
66454;Laerm;56832;52.514;4.662;2022-10-30T00:38:30;35.78;33.19;40.81;;
66454;Laerm;56832;52.514;4.662;2022-10-30T00:38:40;34.57;32.56;42.95;;
66454;Laerm;56832;52.514;4.662;2022-10-30T00:38:51;33.90;32.21;35.97;;
66454;Laerm;56832;52.514;4.662;2022-10-30T00:39:01;34.47;32.63;39.28;;
66454;Laerm;56832;52.514;4.662;2022-10-30T00:39:12;35.32;33.45;41.41;;
66454;Laerm;56832;52.514;4.662;2022-10-30T00:39:23;36.58;34.11;42.98;;
66454;Laerm;56832;52.514;4.662;2022-10-30T00:39:33;36.74;35.25;40.06;;
66454;Laerm;56832;52.514;4.662;2022-10-30T00:39:43;36.69;34.41;40.75;;
66454;Laerm;56832;52.514;4.662;2022-10-30T00:39:53;35.85;33.96;38.88;;
66454;Laerm;56832;52.514;4.662;2022-10-30T00:40:04;38.79;34.97;46.44;;
66454;Laerm;56832;52.514;4.662;2022-10-30T00:40:16;39.80;36.95;47.47;;
66454;Laerm;56832;52.514;4.662;2022-10-30T00:40:26;36.52;34.81;38.28;;
66454;Laerm;56832;52.514;4.662;2022-10-30T00:40:36;35.81;33.48;37.85;;
66454;Laerm;56832;52.514;4.662;2022-10-30T00:40:47;37.61;34.14;48.03;;
66454;Laerm;56832;52.514;4.662;2022-10-30T00:40:57;35.24;33.59;42.34;;
66454;Laerm;56832;52.514;4.662;2022-10-30T00:41:12;35.10;33.16;43.88;;
66454;Laerm;56832;52.514;4.662;2022-10-30T00:41:23;35.36;32.71;48.06;;
66454;Laerm;56832;52.514;4.662;2022-10-30T00:41:33;37.45;34.32;43.49;;
66454;Laerm;56832;52.514;4.662;2022-10-30T00:41:43;35.11;33.14;37.28;;
66454;Laerm;56832;52.514;4.662;2022-10-30T00:41:54;34.55;32.71;36.25;;
66454;Laerm;56832;52.514;4.662;2022-10-30T00:42:04;36.78;33.02;46.11;;
66454;Laerm;56832;52.514;4.662;2022-10-30T00:42:14;37.81;34.94;45.29;;
66454;Laerm;56832;52.514;4.662;2022-10-30T00:42:27;37.35;34.59;43.92;;
66454;Laerm;56832;52.514;4.662;2022-10-30T00:42:38;36.06;34.28;38.39;;
66454;Laerm;56832;52.514;4.662;2022-10-30T00:42:48;35.16;33.82;36.76;;
66454;Laerm;56832;52.514;4.662;2022-10-30T00:42:58;34.75;33.11;36.40;;
66454;Laerm;56832;52.514;4.662;2022-10-30T00:43:28;35.54;33.70;42.45;;
66454;Laerm;56832;52.514;4.662;2022-10-30T00:43:39;34.55;32.16;37.25;;
66454;Laerm;56832;52.514;4.662;2022-10-30T00:43:49;33.62;31.68;43.42;;
66454;Laerm;56832;52.514;4.662;2022-10-30T00:43:59;33.83;31.70;37.55;;
66454;Laerm;56832;52.514;4.662;2022-10-30T00:44:48;35.47;31.49;42.83;;
66454;Laerm;56832;52.514;4.662;2022-10-30T00:44:59;34.74;33.10;38.30;;
66454;Laerm;56832;52.514;4.662;2022-10-30T00:45:13;34.29;32.75;36.30;;
66454;Laerm;56832;52.514;4.662;2022-10-30T00:45:24;35.28;33.09;42.81;;
66454;Laerm;56832;52.514;4.662;2022-10-30T00:45:34;37.01;34.62;39.28;;
66454;Laerm;56832;52.514;4.662;2022-10-30T00:45:44;37.69;35.29;40.29;;
66454;Laerm;56832;52.514;4.662;2022-10-30T00:45:55;39.09;36.20;43.15;;
66454;Laerm;56832;52.514;4.662;2022-10-30T00:46:20;43.23;35.70;53.74;;
66454;Laerm;56832;52.514;4.662;2022-10-30T00:46:33;35.98;34.13;37.81;;
66454;Laerm;56832;52.514;4.662;2022-10-30T00:46:44;36.49;34.10;44.63;;
66454;Laerm;56832;52.514;4.662;2022-10-30T00:46:54;37.05;34.49;42.76;;
66454;Laerm;56832;52.514;4.662;2022-10-30T00:47:06;36.29;34.47;38.23;;
66454;Laerm;56832;52.514;4.662;2022-10-30T00:47:21;37.55;34.55;40.09;;
66454;Laerm;56832;52.514;4.662;2022-10-30T00:47:37;39.03;35.25;47.24;;
66454;Laerm;56832;52.514;4.662;2022-10-30T00:47:55;37.55;34.53;41.60;;
66454;Laerm;56832;52.514;4.662;2022-10-30T00:48:07;39.74;36.05;43.64;;
66454;Laerm;56832;52.514;4.662;2022-10-30T00:48:19;38.08;33.89;43.23;;
66454;Laerm;56832;52.514;4.662;2022-10-30T00:48:31;41.41;36.11;50.49;;
66454;Laerm;56832;52.514;4.662;2022-10-30T00:48:43;35.21;32.84;37.77;;
66454;Laerm;56832;52.514;4.662;2022-10-30T00:49:05;33.84;32.34;35.49;;
66454;Laerm;56832;52.514;4.662;2022-10-30T00:49:17;34.07;32.42;41.76;;
66454;Laerm;56832;52.514;4.662;2022-10-30T00:49:29;33.45;31.69;35.25;;
66454;Laerm;56832;52.514;4.662;2022-10-30T00:49:45;34.11;32.07;37.51;;
66454;Laerm;56832;52.514;4.662;2022-10-30T00:49:59;35.65;33.18;43.30;;
66454;Laerm;56832;52.514;4.662;2022-10-30T00:50:12;37.61;33.30;47.03;;
66454;Laerm;56832;52.514;4.662;2022-10-30T00:50:34;35.99;33.38;42.51;;
66454;Laerm;56832;52.514;4.662;2022-10-30T00:50:45;37.44;35.21;43.72;;
66454;Laerm;56832;52.514;4.662;2022-10-30T00:50:56;36.65;34.53;40.56;;
66454;Laerm;56832;52.514;4.662;2022-10-30T00:51:08;35.08;32.85;37.93;;
66454;Laerm;56832;52.514;4.662;2022-10-30T00:51:19;34.64;32.62;43.93;;
66454;Laerm;56832;52.514;4.662;2022-10-30T00:51:30;34.61;32.67;37.75;;
66454;Laerm;56832;52.514;4.662;2022-10-30T00:51:45;35.82;33.06;44.06;;
66454;Laerm;56832;52.514;4.662;2022-10-30T00:51:57;35.14;32.97;42.48;;
66454;Laerm;56832;52.514;4.662;2022-10-30T00:52:07;37.77;33.18;48.01;;
66454;Laerm;56832;52.514;4.662;2022-10-30T00:52:18;43.10;33.70;55.16;;
66454;Laerm;56832;52.514;4.662;2022-10-30T00:52:30;41.74;36.43;53.10;;
66454;Laerm;56832;52.514;4.662;2022-10-30T00:52:44;36.92;33.98;39.94;;
66454;Laerm;56832;52.514;4.662;2022-10-30T00:53:08;38.28;34.91;46.02;;
66454;Laerm;56832;52.514;4.662;2022-10-30T00:53:20;35.18;33.37;36.92;;
66454;Laerm;56832;52.514;4.662;2022-10-30T00:53:31;35.89;34.04;42.86;;
66454;Laerm;56832;52.514;4.662;2022-10-30T00:53:41;35.22;33.51;36.94;;
66454;Laerm;56832;52.514;4.662;2022-10-30T00:53:52;35.88;33.71;38.16;;
66454;Laerm;56832;52.514;4.662;2022-10-30T00:54:02;35.45;33.37;39.55;;
66454;Laerm;56832;52.514;4.662;2022-10-30T00:54:15;39.73;34.46;48.52;;
66454;Laerm;56832;52.514;4.662;2022-10-30T00:54:27;39.53;34.38;44.02;;
66454;Laerm;56832;52.514;4.662;2022-10-30T00:54:37;37.33;34.33;42.83;;
66454;Laerm;56832;52.514;4.662;2022-10-30T00:54:47;38.80;36.62;42.74;;
66454;Laerm;56832;52.514;4.662;2022-10-30T00:55:01;38.87;36.43;41.12;;
66454;Laerm;56832;52.514;4.662;2022-10-30T00:55:13;38.23;35.41;43.88;;
66454;Laerm;56832;52.514;4.662;2022-10-30T00:55:26;39.44;35.45;51.49;;
66454;Laerm;56832;52.514;4.662;2022-10-30T00:55:42;38.32;35.49;44.24;;
66454;Laerm;56832;52.514;4.662;2022-10-30T00:55:55;38.67;36.06;44.88;;
66454;Laerm;56832;52.514;4.662;2022-10-30T00:56:06;43.39;35.11;59.04;;
66454;Laerm;56832;52.514;4.662;2022-10-30T00:56:18;50.89;36.89;66.44;;
66454;Laerm;56832;52.514;4.662;2022-10-30T00:56:29;42.43;35.51;59.68;;
66454;Laerm;56832;52.514;4.662;2022-10-30T00:56:40;37.75;34.62;42.93;;
66454;Laerm;56832;52.514;4.662;2022-10-30T00:56:51;40.77;37.07;48.58;;
66454;Laerm;56832;52.514;4.662;2022-10-30T00:57:03;36.39;34.08;39.27;;
66454;Laerm;56832;52.514;4.662;2022-10-30T00:57:14;36.65;35.02;38.53;;
66454;Laerm;56832;52.514;4.662;2022-10-30T00:57:24;36.64;34.35;43.03;;
66454;Laerm;56832;52.514;4.662;2022-10-30T00:57:35;37.13;34.66;39.90;;
66454;Laerm;56832;52.514;4.662;2022-10-30T00:57:47;38.00;35.38;42.62;;
66454;Laerm;56832;52.514;4.662;2022-10-30T00:58:00;35.87;33.94;40.34;;
66454;Laerm;56832;52.514;4.662;2022-10-30T00:58:11;34.89;33.01;42.44;;
66454;Laerm;56832;52.514;4.662;2022-10-30T00:58:25;35.86;33.17;38.36;;
66454;Laerm;56832;52.514;4.662;2022-10-30T00:58:38;36.24;33.70;38.52;;
66454;Laerm;56832;52.514;4.662;2022-10-30T00:59:07;35.44;33.26;44.48;;
66454;Laerm;56832;52.514;4.662;2022-10-30T00:59:21;35.83;32.28;40.07;;
66454;Laerm;56832;52.514;4.662;2022-10-30T00:59:32;35.84;33.44;43.21;;
66454;Laerm;56832;52.514;4.662;2022-10-30T00:59:43;34.07;32.46;36.73;;
66454;Laerm;56832;52.514;4.662;2022-10-30T00:59:54;34.43;32.35;36.16;;
66454;Laerm;56832;52.514;4.662;2022-10-30T01:00:05;35.29;33.80;36.86;;
66454;Laerm;56832;52.514;4.662;2022-10-30T01:00:16;34.00;31.55;43.39;;
66454;Laerm;56832;52.514;4.662;2022-10-30T01:00:28;33.42;31.16;35.23;;
66454;Laerm;56832;52.514;4.662;2022-10-30T01:00:39;34.15;32.49;35.87;;
66454;Laerm;56832;52.514;4.662;2022-10-30T01:00:52;33.42;31.20;36.56;;
66454;Laerm;56832;52.514;4.662;2022-10-30T01:01:04;33.42;31.15;43.35;;
66454;Laerm;56832;52.514;4.662;2022-10-30T01:01:17;33.73;31.35;36.05;;
66454;Laerm;56832;52.514;4.662;2022-10-30T01:01:28;33.32;31.53;35.48;;
66454;Laerm;56832;52.514;4.662;2022-10-30T01:01:41;34.71;32.45;37.05;;
66454;Laerm;56832;52.514;4.662;2022-10-30T01:01:52;34.44;31.87;43.27;;
66454;Laerm;56832;52.514;4.662;2022-10-30T01:02:03;33.36;31.52;36.64;;
66454;Laerm;56832;52.514;4.662;2022-10-30T01:02:13;32.54;30.99;34.38;;
66454;Laerm;56832;52.514;4.662;2022-10-30T01:02:23;32.73;30.89;34.79;;
66454;Laerm;56832;52.514;4.662;2022-10-30T01:02:34;33.63;31.60;42.40;;
66454;Laerm;56832;52.514;4.662;2022-10-30T01:02:45;33.26;31.80;34.87;;
66454;Laerm;56832;52.514;4.662;2022-10-30T01:02:55;33.36;31.88;34.88;;
66454;Laerm;56832;52.514;4.662;2022-10-30T01:03:06;33.17;31.46;35.14;;